Terminal Aerodrome Forecast
Issued by NWS Pocatello, ID

Home | Current Version | Previous Version | Text Only | Print | Product List | Glossary On
Versions: 1 2 3 4 5 6 7 8 9 10 11 12 13 14
038
FTUS45 KPIH 292320
TAFIDA
TAF
KIDA 292320Z 3000/3024 VRB06KT P6SM FEW100
     FM301700 22013G22KT P6SM FEW090 SCT110=

USA.gov is the U.S. government's official web portal to all federal, state and local government web resources and services.